createdAt,value
2023-05-04T00:00:16.719Z,2510.00
2023-05-04T00:01:16.708Z,2518.00
2023-05-04T00:02:16.772Z,2532.00
2023-05-04T00:03:16.811Z,2503.00
2023-05-04T00:04:16.812Z,2501.00
2023-05-04T00:05:16.771Z,2532.00
2023-05-04T00:06:17.111Z,2529.00
2023-05-04T00:07:16.668Z,2535.00
2023-05-04T00:08:16.673Z,2530.00
2023-05-04T00:09:16.671Z,2515.00
2023-05-04T00:10:16.648Z,2521.00
2023-05-04T00:11:16.646Z,2500.00
2023-05-04T00:12:16.626Z,2514.00
2023-05-04T00:13:16.700Z,2476.00
2023-05-04T00:14:16.651Z,2465.00
2023-05-04T00:15:16.650Z,2502.00
2023-05-04T00:16:16.651Z,2512.00
2023-05-04T00:17:16.616Z,2515.00
2023-05-04T00:18:16.614Z,2544.00
2023-05-04T00:19:16.587Z,2537.00
2023-05-04T00:20:16.591Z,2505.00
2023-05-04T00:21:16.565Z,2528.00
2023-05-04T00:22:16.562Z,2489.00
2023-05-04T00:23:16.554Z,2462.00
2023-05-04T00:24:16.570Z,2423.00
2023-05-04T00:25:16.550Z,2380.00
2023-05-04T00:26:16.537Z,2424.00
2023-05-04T00:27:16.538Z,2429.00
2023-05-04T00:28:16.545Z,2434.00
2023-05-04T00:29:16.539Z,2414.00
2023-05-04T00:30:16.553Z,2451.00
2023-05-04T00:31:16.546Z,2472.00
2023-05-04T00:32:16.509Z,2492.00
2023-05-04T00:33:16.509Z,2488.00
2023-05-04T00:34:16.475Z,2445.00
2023-05-04T00:35:16.474Z,2450.00
2023-05-04T00:36:16.494Z,2469.00
2023-05-04T00:37:16.481Z,2456.00
2023-05-04T00:38:16.472Z,2483.00
2023-05-04T00:39:16.460Z,2500.00
2023-05-04T00:40:16.466Z,2515.00
2023-05-04T00:41:16.433Z,2487.00
2023-05-04T00:42:16.450Z,2452.00
2023-05-04T00:43:16.427Z,2456.00
2023-05-04T00:44:16.425Z,2446.00
2023-05-04T00:45:16.420Z,2418.00
2023-05-04T00:46:16.413Z,2450.00
2023-05-04T00:47:16.479Z,2441.00
2023-05-04T00:48:16.493Z,2426.00
2023-05-04T00:49:16.400Z,2416.00
2023-05-04T00:50:16.388Z,2455.00
2023-05-04T00:51:16.386Z,2443.00
2023-05-04T00:52:16.381Z,2458.00
2023-05-04T00:53:16.380Z,2477.00
2023-05-04T00:54:16.377Z,2486.00
2023-05-04T00:55:16.372Z,2439.00
2023-05-04T00:56:16.358Z,2420.00
2023-05-04T00:57:16.339Z,2439.00
2023-05-04T00:58:16.328Z,2463.00
2023-05-04T00:59:16.354Z,2490.00
2023-05-04T01:00:16.323Z,2491.00
2023-05-04T01:01:16.346Z,2475.00
2023-05-04T01:02:16.312Z,2446.00
2023-05-04T01:03:16.348Z,2474.00
2023-05-04T01:04:16.304Z,2489.00
2023-05-04T01:05:16.293Z,2457.00
2023-05-04T01:06:16.281Z,2443.00
2023-05-04T01:07:16.303Z,2450.00
2023-05-04T01:08:16.272Z,2445.00
2023-05-04T01:09:16.255Z,2446.00
2023-05-04T01:10:16.262Z,2485.00
2023-05-04T01:11:16.255Z,2501.00
2023-05-04T01:12:16.243Z,2516.00
2023-05-04T01:13:16.295Z,2463.00
2023-05-04T01:14:16.213Z,2448.00
2023-05-04T01:15:16.236Z,2415.00
2023-05-04T01:16:16.236Z,2408.00
2023-05-04T01:17:16.198Z,2405.00
2023-05-04T01:18:16.268Z,2396.00
2023-05-04T01:19:16.206Z,2416.00
2023-05-04T01:20:16.192Z,2445.00
2023-05-04T01:21:16.166Z,2474.00
2023-05-04T01:22:16.159Z,2492.00
2023-05-04T01:23:16.156Z,2493.00
2023-05-04T01:24:16.156Z,2542.00
2023-05-04T01:25:16.159Z,2549.00
2023-05-04T01:26:16.153Z,2536.00
2023-05-04T01:27:16.139Z,2522.00
2023-05-04T01:28:16.130Z,2529.00
2023-05-04T01:29:16.134Z,2529.00
2023-05-04T01:30:16.117Z,2503.00
2023-05-04T01:31:16.181Z,2499.00
2023-05-04T01:32:16.111Z,2501.00
2023-05-04T01:33:16.083Z,2487.00
2023-05-04T01:34:16.098Z,2498.00
2023-05-04T01:35:16.090Z,2547.00
2023-05-04T01:36:16.073Z,2596.00
2023-05-04T01:37:16.077Z,2595.00
2023-05-04T01:38:16.082Z,2603.00
2023-05-04T01:39:16.057Z,2571.00
2023-05-04T01:40:16.049Z,2535.00
2023-05-04T01:41:16.027Z,2532.00
2023-05-04T01:42:16.038Z,2523.00
2023-05-04T01:43:16.024Z,2524.00
2023-05-04T01:44:16.018Z,2492.00
2023-05-04T01:45:16.018Z,2500.00
2023-05-04T01:46:16.015Z,2513.00
2023-05-04T01:47:15.993Z,2472.00
2023-05-04T01:48:15.985Z,2480.00
2023-05-04T01:49:15.993Z,2512.00
2023-05-04T01:50:15.985Z,2524.00
2023-05-04T01:51:15.984Z,2514.00
2023-05-04T01:52:15.960Z,2457.00
2023-05-04T01:53:15.968Z,2462.00
2023-05-04T01:54:15.947Z,2441.00
2023-05-04T01:55:15.941Z,2414.00
2023-05-04T01:56:15.935Z,2383.00
2023-05-04T01:57:15.961Z,2377.00
2023-05-04T01:58:15.916Z,2426.00
2023-05-04T01:59:15.941Z,2471.00
2023-05-04T02:00:15.932Z,2469.00
2023-05-04T02:01:15.964Z,2483.00
2023-05-04T02:02:15.919Z,2544.00
2023-05-04T02:03:15.972Z,2561.00
2023-05-04T02:04:15.893Z,2535.00
2023-05-04T02:05:15.868Z,2491.00
2023-05-04T02:06:15.866Z,2445.00
2023-05-04T02:07:15.860Z,2430.00
2023-05-04T02:08:15.873Z,2452.00
2023-05-04T02:09:15.860Z,2422.00
2023-05-04T02:10:15.865Z,2416.00
2023-05-04T02:11:15.831Z,2419.00
2023-05-04T02:12:15.830Z,2430.00
2023-05-04T02:13:15.923Z,2397.00
2023-05-04T02:14:15.846Z,2375.00
2023-05-04T02:15:15.821Z,2397.00
2023-05-04T02:16:15.878Z,2423.00
2023-05-04T02:17:15.807Z,2391.00
2023-05-04T02:18:15.798Z,2356.00
2023-05-04T02:19:15.777Z,2357.00
2023-05-04T02:20:15.782Z,2362.00
2023-05-04T02:21:15.783Z,2370.00
2023-05-04T02:22:15.764Z,2356.00
2023-05-04T02:23:15.767Z,2372.00
2023-05-04T02:24:15.795Z,2368.00
2023-05-04T02:25:15.774Z,2354.00
2023-05-04T02:26:15.735Z,2315.00
2023-05-04T02:27:15.783Z,2294.00
2023-05-04T02:28:15.741Z,2262.00
2023-05-04T02:29:15.742Z,2261.00
2023-05-04T02:30:15.753Z,2255.00
2023-05-04T02:31:15.772Z,2294.00
2023-05-04T02:32:15.710Z,2316.00
2023-05-04T02:33:15.702Z,2288.00
2023-05-04T02:34:15.702Z,2262.00
2023-05-04T02:35:15.697Z,2251.00
2023-05-04T02:36:15.696Z,2262.00
2023-05-04T02:37:15.676Z,2269.00
2023-05-04T02:38:15.692Z,2289.00
2023-05-04T02:39:15.664Z,2294.00
2023-05-04T02:40:15.656Z,2303.00
2023-05-04T02:41:15.674Z,2331.00
2023-05-04T02:42:15.646Z,2287.00
2023-05-04T02:43:15.649Z,2236.00
2023-05-04T02:44:15.681Z,2250.00
2023-05-04T02:45:15.653Z,2235.00
2023-05-04T02:46:15.754Z,2219.00
2023-05-04T02:47:15.638Z,2209.00
2023-05-04T02:48:15.615Z,2205.00
2023-05-04T02:49:15.600Z,2211.00
2023-05-04T02:50:15.601Z,2223.00
2023-05-04T02:51:15.609Z,2245.00
2023-05-04T02:52:15.590Z,2244.00
2023-05-04T02:53:15.572Z,2244.00
2023-05-04T02:54:15.600Z,2226.00
2023-05-04T02:55:15.578Z,2221.00
2023-05-04T02:56:15.554Z,2227.00
2023-05-04T02:57:15.557Z,2210.00
2023-05-04T02:58:15.567Z,2265.00
2023-05-04T02:59:15.545Z,2264.00
2023-05-04T03:00:15.552Z,2297.00
2023-05-04T03:01:15.560Z,2262.00
2023-05-04T03:02:15.520Z,2263.00
2023-05-04T03:03:15.518Z,2255.00
2023-05-04T03:04:15.615Z,2240.00
2023-05-04T03:05:15.497Z,2221.00
2023-05-04T03:06:15.507Z,2213.00
2023-05-04T03:07:15.499Z,2199.00
2023-05-04T03:08:15.477Z,2239.00
2023-05-04T03:09:15.491Z,2268.00
2023-05-04T03:10:15.458Z,2235.00
2023-05-04T03:11:15.449Z,2209.00
2023-05-04T03:12:15.471Z,2187.00
2023-05-04T03:13:15.498Z,2218.00
2023-05-04T03:14:15.430Z,2200.00
2023-05-04T03:15:15.463Z,2214.00
2023-05-04T03:16:15.478Z,2248.00
2023-05-04T03:17:15.409Z,2289.00
2023-05-04T03:18:15.422Z,2279.00
2023-05-04T03:19:15.413Z,2261.00
2023-05-04T03:20:15.405Z,2247.00
2023-05-04T03:21:15.422Z,2249.00
2023-05-04T03:22:15.399Z,2265.00
2023-05-04T03:23:15.384Z,2296.00
2023-05-04T03:24:15.386Z,2323.00
2023-05-04T03:25:15.364Z,2288.00
2023-05-04T03:26:15.397Z,2278.00
2023-05-04T03:27:15.363Z,2287.00
2023-05-04T03:28:15.349Z,2316.00
2023-05-04T03:29:15.385Z,2309.00
2023-05-04T03:30:15.338Z,2294.00
2023-05-04T03:31:15.376Z,2283.00
2023-05-04T03:32:15.416Z,2223.00
2023-05-04T03:33:15.326Z,2191.00
2023-05-04T03:34:15.369Z,2171.00
2023-05-04T03:35:15.386Z,2180.00
2023-05-04T03:36:15.290Z,2138.00
2023-05-04T03:37:15.287Z,2187.00
2023-05-04T03:38:15.279Z,2137.00
2023-05-04T03:39:15.266Z,2156.00
2023-05-04T03:40:15.282Z,2138.00
2023-05-04T03:41:15.265Z,2116.00
2023-05-04T03:42:15.269Z,2107.00
2023-05-04T03:43:15.256Z,2122.00
2023-05-04T03:44:15.249Z,2101.00
2023-05-04T03:45:15.250Z,2108.00
2023-05-04T03:46:15.266Z,2128.00
2023-05-04T03:47:15.230Z,2131.00
2023-05-04T03:48:15.206Z,2102.00
2023-05-04T03:49:15.217Z,2106.00
2023-05-04T03:50:15.209Z,2110.00
2023-05-04T03:51:15.207Z,2115.00
2023-05-04T03:52:15.219Z,2145.00
2023-05-04T03:53:15.199Z,2173.00
2023-05-04T03:54:15.181Z,2203.00
2023-05-04T03:55:15.184Z,2226.00
2023-05-04T03:56:15.199Z,2216.00
2023-05-04T03:57:15.161Z,2228.00
2023-05-04T03:58:15.160Z,2207.00
2023-05-04T03:59:15.146Z,2198.00
2023-05-04T04:00:15.145Z,2222.00
2023-05-04T04:01:15.154Z,2224.00
2023-05-04T04:02:15.125Z,2213.00
2023-05-04T04:03:15.335Z,2220.00
2023-05-04T04:04:15.232Z,2238.00
2023-05-04T04:05:15.127Z,2243.00
2023-05-04T04:06:15.090Z,2257.00
2023-05-04T04:07:15.094Z,2251.00
2023-05-04T04:08:15.090Z,2272.00
2023-05-04T04:09:15.072Z,2271.00
2023-05-04T04:10:15.090Z,2242.00
2023-05-04T04:11:15.053Z,2237.00
2023-05-04T04:12:15.071Z,2223.00
2023-05-04T04:13:15.147Z,2231.00
2023-05-04T04:14:15.055Z,2219.00
2023-05-04T04:15:15.050Z,2224.00
2023-05-04T04:16:15.102Z,2221.00
2023-05-04T04:17:15.039Z,2246.00
2023-05-04T04:18:15.018Z,2275.00
2023-05-04T04:19:15.011Z,2289.00
2023-05-04T04:20:15.003Z,2287.00
2023-05-04T04:21:15.005Z,2297.00
2023-05-04T04:22:15.019Z,2271.00
2023-05-04T04:23:14.999Z,2248.00
2023-05-04T04:24:14.982Z,2236.00
2023-05-04T04:25:14.977Z,2226.00
2023-05-04T04:26:14.961Z,2203.00
2023-05-04T04:27:14.956Z,2213.00
2023-05-04T04:28:14.962Z,2240.00
2023-05-04T04:29:14.962Z,2243.00
2023-05-04T04:30:14.939Z,2267.00
2023-05-04T04:31:14.960Z,2297.00
2023-05-04T04:32:14.926Z,2301.00
2023-05-04T04:33:14.939Z,2294.00
2023-05-04T04:34:14.909Z,2247.00
2023-05-04T04:35:14.910Z,2247.00
2023-05-04T04:36:14.896Z,2258.00
2023-05-04T04:37:14.889Z,2258.00
2023-05-04T04:38:14.914Z,2318.00
2023-05-04T04:39:14.905Z,2372.00
2023-05-04T04:40:14.878Z,2405.00
2023-05-04T04:41:14.872Z,2405.00
2023-05-04T04:42:14.882Z,2425.00
2023-05-04T04:43:14.883Z,2422.00
2023-05-04T04:44:14.886Z,2437.00
2023-05-04T04:45:14.899Z,2442.00
2023-05-04T04:46:14.878Z,2448.00
2023-05-04T04:47:14.890Z,2463.00
2023-05-04T04:48:14.892Z,2459.00
2023-05-04T04:49:14.865Z,2446.00
2023-05-04T04:50:14.871Z,2458.00
2023-05-04T04:51:14.873Z,2454.00
2023-05-04T04:52:15.628Z,2461.00
2023-05-04T04:53:14.889Z,2493.00
2023-05-04T04:54:14.845Z,2513.00
2023-05-04T04:55:14.864Z,2502.00
2023-05-04T04:56:14.841Z,2474.00
2023-05-04T04:57:14.848Z,2462.00
2023-05-04T04:58:14.854Z,2453.00
2023-05-04T04:59:14.858Z,2472.00
2023-05-04T05:00:14.857Z,2456.00
2023-05-04T05:01:14.862Z,2468.00
2023-05-04T05:02:14.853Z,2472.00
2023-05-04T05:03:14.928Z,2463.00
2023-05-04T05:04:14.900Z,2474.00
2023-05-04T05:05:14.940Z,2462.00
2023-05-04T05:06:14.953Z,2458.00
2023-05-04T05:07:15.005Z,2457.00
2023-05-04T05:08:15.049Z,2496.00
2023-05-04T05:09:15.138Z,2482.00
2023-05-04T05:10:15.204Z,2477.00
2023-05-04T05:11:15.287Z,2475.00
2023-05-04T05:12:15.310Z,2481.00
2023-05-04T05:13:15.471Z,2481.00
2023-05-04T05:14:15.457Z,2486.00
2023-05-04T05:15:15.485Z,2501.00
2023-05-04T05:16:15.620Z,2501.00
2023-05-04T05:17:15.590Z,2509.00
2023-05-04T05:18:15.715Z,2517.00
2023-05-04T05:19:15.697Z,2515.00
2023-05-04T05:20:15.777Z,2539.00
2023-05-04T05:21:15.797Z,2544.00
2023-05-04T05:22:15.847Z,2555.00
2023-05-04T05:23:15.876Z,2570.00
2023-05-04T05:24:15.934Z,2585.00
2023-05-04T05:25:15.994Z,2585.00
2023-05-04T05:26:15.997Z,2595.00
2023-05-04T05:27:16.075Z,2612.00
2023-05-04T05:28:16.118Z,2628.00
2023-05-04T05:29:16.136Z,2633.00
2023-05-04T05:30:16.175Z,2597.00
2023-05-04T05:31:16.258Z,2612.00
2023-05-04T05:32:16.229Z,2616.00
2023-05-04T05:33:16.341Z,2643.00
2023-05-04T05:34:16.417Z,2673.00
2023-05-04T05:35:16.381Z,2699.00
2023-05-04T05:36:16.401Z,2705.00
2023-05-04T05:37:16.756Z,2731.00
2023-05-04T05:38:16.455Z,2772.00
2023-05-04T05:39:16.463Z,3214.00
2023-05-04T05:40:16.528Z,3095.00
2023-05-04T05:41:16.555Z,3032.00
2023-05-04T05:42:16.572Z,3025.00
2023-05-04T05:43:16.647Z,2987.00
2023-05-04T05:44:16.590Z,2987.00
2023-05-04T05:45:16.613Z,2998.00
2023-05-04T05:46:16.668Z,2996.00
2023-05-04T05:47:16.611Z,3012.00
2023-05-04T05:48:16.628Z,3019.00
2023-05-04T05:49:16.610Z,3033.00
2023-05-04T05:50:16.729Z,3040.00
2023-05-04T05:51:16.637Z,3065.00
2023-05-04T05:52:16.634Z,3070.00
2023-05-04T05:53:16.639Z,3086.00
2023-05-04T05:54:16.662Z,3083.00
2023-05-04T05:55:16.661Z,3088.00
2023-05-04T05:56:16.662Z,3095.00
2023-05-04T05:57:16.706Z,3099.00
2023-05-04T05:58:16.679Z,3102.00
2023-05-04T05:59:16.678Z,3101.00
2023-05-04T06:00:16.692Z,3111.00
2023-05-04T06:01:16.701Z,3108.00
2023-05-04T06:02:16.720Z,3128.00
2023-05-04T06:03:16.785Z,3121.00
2023-05-04T06:04:16.809Z,3120.00
2023-05-04T06:05:16.710Z,3137.00
2023-05-04T06:06:16.760Z,3164.00
2023-05-04T06:07:16.731Z,3225.00
2023-05-04T06:08:16.746Z,3259.00
2023-05-04T06:09:16.759Z,3250.00
2023-05-04T06:10:16.755Z,3249.00
2023-05-04T06:11:16.762Z,3231.00
2023-05-04T06:12:17.264Z,3214.00
2023-05-04T06:13:16.910Z,3193.00
2023-05-04T06:14:16.814Z,3197.00
2023-05-04T06:15:16.800Z,3197.00
2023-05-04T06:16:16.825Z,3195.00
2023-05-04T06:17:16.832Z,3201.00
2023-05-04T06:18:16.823Z,3214.00
2023-05-04T06:19:16.859Z,3225.00
2023-05-04T06:20:16.869Z,3254.00
2023-05-04T06:21:16.835Z,3293.00
2023-05-04T06:22:16.899Z,3327.00
2023-05-04T06:23:16.862Z,3311.00
2023-05-04T06:24:16.862Z,3312.00
2023-05-04T06:25:16.893Z,3279.00
2023-05-04T06:26:16.886Z,3256.00
2023-05-04T06:27:16.901Z,3242.00
2023-05-04T06:28:17.270Z,3257.00
2023-05-04T06:29:16.914Z,3251.00
2023-05-04T06:30:16.924Z,3239.00
2023-05-04T06:31:16.991Z,3166.00
2023-05-04T06:32:16.990Z,3088.00
2023-05-04T06:33:17.276Z,3070.00
2023-05-04T06:34:16.990Z,3081.00
2023-05-04T06:35:16.981Z,3102.00
2023-05-04T06:36:16.981Z,3104.00
2023-05-04T06:37:16.995Z,3117.00
2023-05-04T06:38:17.289Z,3133.00
2023-05-04T06:39:17.066Z,3164.00
2023-05-04T06:40:17.060Z,3194.00
2023-05-04T06:41:17.052Z,3210.00
2023-05-04T06:42:17.053Z,3253.00
2023-05-04T06:43:17.067Z,3274.00
2023-05-04T06:44:17.063Z,3291.00
2023-05-04T06:45:17.056Z,3321.00
2023-05-04T06:46:17.092Z,3337.00
2023-05-04T06:47:17.057Z,3343.00
2023-05-04T06:48:17.045Z,3356.00
2023-05-04T06:49:17.056Z,3351.00
2023-05-04T06:50:17.036Z,3370.00
2023-05-04T06:51:17.037Z,3373.00
2023-05-04T06:52:17.041Z,3391.00
2023-05-04T06:53:17.031Z,3392.00
2023-05-04T06:54:17.033Z,3392.00
2023-05-04T06:55:17.049Z,3402.00
2023-05-04T06:56:17.074Z,3407.00
2023-05-04T06:57:17.100Z,3402.00
2023-05-04T06:58:17.162Z,3411.00
2023-05-04T06:59:17.200Z,3409.00
2023-05-04T07:00:17.228Z,3404.00
2023-05-04T07:01:18.579Z,3405.00
2023-05-04T07:02:17.349Z,3423.00
2023-05-04T07:03:17.455Z,3429.00
2023-05-04T07:04:17.448Z,3405.00
2023-05-04T07:05:17.517Z,3425.00
2023-05-04T07:06:17.570Z,3418.00
2023-05-04T07:07:17.683Z,3430.00
2023-05-04T07:08:17.718Z,3419.00
2023-05-04T07:09:17.744Z,3408.00
2023-05-04T07:10:17.844Z,3393.00
2023-05-04T07:11:17.849Z,3369.00
2023-05-04T07:12:17.911Z,3307.00
2023-05-04T07:13:18.306Z,3175.00
2023-05-04T07:14:17.910Z,3190.00
2023-05-04T07:15:17.900Z,3124.00
2023-05-04T07:16:17.976Z,3162.00
2023-05-04T07:17:18.305Z,3202.00
2023-05-04T07:18:17.935Z,3238.00
2023-05-04T07:19:17.955Z,3231.00
2023-05-04T07:20:17.999Z,3229.00
2023-05-04T07:22:17.990Z,3226.00
2023-05-04T07:23:18.003Z,3211.00
2023-05-04T07:24:17.991Z,3222.00
2023-05-04T07:25:17.991Z,3226.00
2023-05-04T07:26:17.996Z,3236.00
2023-05-04T07:27:18.033Z,3178.00
2023-05-04T07:28:17.965Z,3117.00
2023-05-04T07:29:17.958Z,3144.00
2023-05-04T07:30:17.947Z,3115.00
2023-05-04T07:31:17.966Z,3105.00
2023-05-04T07:32:18.435Z,3045.00
2023-05-04T07:33:17.960Z,3052.00
2023-05-04T07:34:17.954Z,3016.00
2023-05-04T07:35:17.942Z,3060.00
2023-05-04T07:36:18.000Z,3058.00
2023-05-04T07:37:18.358Z,3061.00
2023-05-04T07:38:17.947Z,3069.00
2023-05-04T07:39:17.907Z,3059.00
2023-05-04T07:40:17.881Z,3025.00
2023-05-04T07:41:17.867Z,3049.00
2023-05-04T07:42:18.324Z,3058.00
2023-05-04T07:43:17.904Z,3061.00
2023-05-04T07:44:17.887Z,3066.00
2023-05-04T07:45:17.840Z,3078.00
2023-05-04T07:46:17.874Z,3073.00
2023-05-04T07:47:17.924Z,3071.00
2023-05-04T07:48:18.347Z,3091.00
2023-05-04T07:49:18.007Z,3025.00
2023-05-04T07:50:18.042Z,2955.00
2023-05-04T07:51:18.038Z,2936.00
2023-05-04T07:52:18.055Z,2953.00
2023-05-04T07:53:18.299Z,2985.00
2023-05-04T07:54:18.343Z,2985.00
2023-05-04T07:55:18.197Z,2992.00
2023-05-04T07:56:18.229Z,3003.00
2023-05-04T07:57:18.294Z,3002.00
2023-05-04T07:58:18.828Z,3009.00
2023-05-04T07:59:18.431Z,3012.00
2023-05-04T08:00:18.486Z,3037.00
2023-05-04T08:01:18.540Z,3024.00
2023-05-04T08:02:18.712Z,2999.00
2023-05-04T08:03:18.736Z,3079.00
2023-05-04T08:04:18.723Z,3187.00
2023-05-04T08:05:18.788Z,3150.00
2023-05-04T08:06:18.856Z,3155.00
2023-05-04T08:07:18.925Z,3143.00
2023-05-04T08:08:19.007Z,3130.00
2023-05-04T08:09:19.047Z,3107.00
2023-05-04T08:10:19.100Z,3102.00
2023-05-04T08:11:20.996Z,3104.00
2023-05-04T08:12:19.234Z,3069.00
2023-05-04T08:13:19.280Z,3069.00
2023-05-04T08:14:19.333Z,3070.00
2023-05-04T08:15:19.380Z,3068.00
2023-05-04T08:16:19.474Z,3063.00
2023-05-04T08:17:19.524Z,3064.00
2023-05-04T08:18:19.541Z,3055.00
2023-05-04T08:19:19.599Z,3060.00
2023-05-04T08:20:21.640Z,2888.00
2023-05-04T08:21:19.673Z,2858.00
2023-05-04T08:22:19.668Z,2814.00
2023-05-04T08:23:19.820Z,2801.00
2023-05-04T08:24:19.667Z,2828.00
2023-05-04T08:25:19.654Z,2779.00
2023-05-04T08:26:19.631Z,2708.00
2023-05-04T08:27:19.654Z,2608.00
2023-05-04T08:28:19.625Z,2569.00
2023-05-04T08:29:19.613Z,2468.00
2023-05-04T08:30:19.615Z,2324.00
2023-05-04T08:31:19.638Z,2234.00
2023-05-04T08:32:19.579Z,2219.00
2023-05-04T08:33:19.606Z,2038.00
2023-05-04T08:34:19.613Z,1931.00
2023-05-04T08:35:19.574Z,1823.00
2023-05-04T08:36:19.578Z,1755.00
2023-05-04T08:37:19.559Z,1908.00
2023-05-04T08:38:19.551Z,2064.00
2023-05-04T08:39:19.528Z,2207.00
2023-05-04T08:40:19.522Z,2290.00
2023-05-04T08:41:19.517Z,2322.00
2023-05-04T08:42:19.520Z,2338.00
2023-05-04T08:43:19.844Z,2404.00
2023-05-04T08:44:19.515Z,2448.00
2023-05-04T08:45:19.566Z,2460.00
2023-05-04T08:46:19.598Z,2510.00
2023-05-04T08:47:19.503Z,2535.00
2023-05-04T08:48:19.503Z,2569.00
2023-05-04T08:49:19.532Z,2602.00
2023-05-04T08:50:19.503Z,2624.00
2023-05-04T08:51:19.477Z,2647.00
2023-05-04T08:52:19.477Z,2675.00
2023-05-04T08:53:19.506Z,2712.00
2023-05-04T08:54:19.475Z,2728.00
2023-05-04T08:55:19.444Z,2721.00
2023-05-04T08:56:19.452Z,2732.00
2023-05-04T08:57:19.435Z,2754.00
2023-05-04T08:58:19.435Z,2745.00
2023-05-04T08:59:19.420Z,2783.00
2023-05-04T09:00:19.402Z,2796.00
2023-05-04T09:01:19.526Z,2828.00
2023-05-04T09:02:19.580Z,2827.00
2023-05-04T09:03:19.884Z,2826.00
2023-05-04T09:04:19.374Z,2825.00
2023-05-04T09:05:19.384Z,2822.00
2023-05-04T09:06:19.377Z,2822.00
2023-05-04T09:07:19.375Z,2814.00
2023-05-04T09:08:19.859Z,2811.00
2023-05-04T09:09:19.463Z,2809.00
2023-05-04T09:10:19.496Z,2816.00
2023-05-04T09:11:19.522Z,2827.00
2023-05-04T09:12:19.570Z,2837.00
2023-05-04T09:13:19.865Z,2846.00
2023-05-04T09:14:19.600Z,2852.00
2023-05-04T09:15:19.659Z,2836.00
2023-05-04T09:16:19.707Z,2826.00
2023-05-04T09:17:19.706Z,2817.00
2023-05-04T09:18:19.774Z,2813.00
2023-05-04T09:19:19.750Z,2575.00
2023-05-04T09:20:19.842Z,2568.00
2023-05-04T09:21:19.813Z,2605.00
2023-05-04T09:22:19.855Z,2654.00
2023-05-04T09:23:20.352Z,2729.00
2023-05-04T09:24:19.935Z,2761.00
2023-05-04T09:25:19.939Z,2805.00
2023-05-04T09:26:19.979Z,2747.00
2023-05-04T09:27:20.023Z,2699.00
2023-05-04T09:28:20.050Z,2738.00
2023-05-04T09:29:20.114Z,2693.00
2023-05-04T09:30:20.169Z,2690.00
2023-05-04T09:31:20.182Z,2711.00
2023-05-04T09:32:20.213Z,2692.00
2023-05-04T09:33:20.358Z,2758.00
2023-05-04T09:34:20.283Z,2824.00
2023-05-04T09:35:31.959Z,2841.00
2023-05-04T09:36:21.365Z,2842.00
2023-05-04T09:37:20.263Z,2846.00
2023-05-04T09:38:20.276Z,2849.00
2023-05-04T09:39:20.220Z,2847.00
2023-05-04T09:40:20.298Z,2859.00
2023-05-04T09:41:20.222Z,2889.00
2023-05-04T09:42:20.203Z,2875.00
2023-05-04T09:43:20.228Z,2864.00
2023-05-04T09:44:20.206Z,2854.00
2023-05-04T09:45:20.201Z,2875.00
2023-05-04T09:46:20.217Z,2872.00
2023-05-04T09:47:20.185Z,2880.00
2023-05-04T09:48:20.499Z,2886.00
2023-05-04T09:49:20.154Z,2859.00
2023-05-04T09:50:21.172Z,2833.00
2023-05-04T09:51:20.140Z,2798.00
2023-05-04T09:52:20.157Z,2790.00
2023-05-04T09:53:20.354Z,2776.00
2023-05-04T09:54:20.367Z,2788.00
2023-05-04T09:55:20.234Z,2774.00
2023-05-04T09:56:20.248Z,2746.00
2023-05-04T09:57:20.269Z,2740.00
2023-05-04T09:58:20.363Z,2737.00
2023-05-04T09:59:20.391Z,2720.00
2023-05-04T10:00:20.454Z,2701.00
2023-05-04T10:01:20.474Z,2699.00
2023-05-04T10:02:23.282Z,2703.00
2023-05-04T10:03:20.465Z,2722.00
2023-05-04T10:04:20.400Z,2724.00
2023-05-04T10:05:20.418Z,2713.00
2023-05-04T10:06:20.385Z,2712.00
2023-05-04T10:07:20.390Z,2708.00
2023-05-04T10:08:20.379Z,2695.00
2023-05-04T10:09:20.363Z,2723.00
2023-05-04T10:10:20.371Z,2758.00
2023-05-04T10:11:20.434Z,2760.00
2023-05-04T10:12:20.345Z,2767.00
2023-05-04T10:13:20.332Z,2751.00
2023-05-04T10:14:20.346Z,2738.00
2023-05-04T10:15:20.351Z,2744.00
2023-05-04T10:16:20.388Z,2718.00
2023-05-04T10:17:20.316Z,2707.00
2023-05-04T10:18:20.349Z,2676.00
2023-05-04T10:19:20.294Z,2626.00
2023-05-04T10:20:20.325Z,2496.00
2023-05-04T10:21:20.302Z,2533.00
2023-05-04T10:22:20.285Z,2572.00
2023-05-04T10:23:21.976Z,2652.00
2023-05-04T10:24:20.380Z,2589.00
2023-05-04T10:25:20.284Z,1925.00
2023-05-04T10:26:20.272Z,1949.00
2023-05-04T10:27:20.255Z,1956.00
2023-05-04T10:28:20.258Z,2045.00
2023-05-04T10:29:22.605Z,2224.00
2023-05-04T10:30:20.259Z,2228.00
2023-05-04T10:31:20.272Z,2204.00
2023-05-04T10:32:20.252Z,2168.00
2023-05-04T10:33:20.256Z,2172.00
2023-05-04T10:34:20.394Z,2335.00
2023-05-04T10:35:20.255Z,2298.00
2023-05-04T10:36:20.216Z,2299.00
2023-05-04T10:37:20.263Z,2267.00
2023-05-04T10:38:20.216Z,2195.00
2023-05-04T10:39:20.227Z,2274.00
2023-05-04T10:40:20.181Z,2346.00
2023-05-04T10:41:20.209Z,2317.00
2023-05-04T10:42:20.210Z,2385.00
2023-05-04T10:43:20.206Z,2435.00
2023-05-04T10:44:20.196Z,2420.00
2023-05-04T10:45:20.181Z,2209.00
2023-05-04T10:46:20.166Z,2252.00
2023-05-04T10:47:20.204Z,2252.00
2023-05-04T10:48:20.128Z,2151.00
2023-05-04T10:49:20.409Z,2095.00
2023-05-04T10:50:20.132Z,2014.00
2023-05-04T10:51:20.120Z,1772.00
2023-05-04T10:52:20.170Z,1786.00
2023-05-04T10:53:20.127Z,1986.00
2023-05-04T10:54:20.432Z,2137.00
2023-05-04T10:55:20.121Z,2139.00
2023-05-04T10:56:20.188Z,2023.00
2023-05-04T10:57:20.085Z,2087.00
2023-05-04T10:58:20.133Z,1989.00
2023-05-04T10:59:20.470Z,1987.00
2023-05-04T11:00:20.102Z,2122.00
2023-05-04T11:01:20.097Z,2102.00
2023-05-04T11:02:20.115Z,1943.00
2023-05-04T11:03:20.161Z,1957.00
2023-05-04T11:04:20.379Z,1897.00
2023-05-04T11:05:20.329Z,1854.00
2023-05-04T11:06:23.480Z,1883.00
2023-05-04T11:07:20.030Z,1855.00
2023-05-04T11:08:20.054Z,1844.00
2023-05-04T11:09:19.990Z,1772.00
2023-05-04T11:10:20.104Z,1260.00
2023-05-04T11:11:19.976Z,1227.00
2023-05-04T11:12:19.977Z,1434.00
2023-05-04T11:13:20.039Z,1455.00
2023-05-04T11:14:19.951Z,1372.00
2023-05-04T11:15:19.979Z,1457.00
2023-05-04T11:16:20.002Z,1440.00
2023-05-04T11:17:28.269Z,1096.00
2023-05-04T11:18:21.408Z,794.00
2023-05-04T11:19:19.964Z,1026.00
2023-05-04T11:20:19.936Z,1165.00
2023-05-04T11:21:19.917Z,1252.00
2023-05-04T11:22:19.915Z,1062.00
2023-05-04T11:23:19.898Z,1369.00
2023-05-04T11:24:19.896Z,1022.00
2023-05-04T11:25:19.881Z,625.00
2023-05-04T11:26:19.899Z,400.00
2023-05-04T11:27:19.879Z,475.00
2023-05-04T11:28:19.893Z,638.00
2023-05-04T11:29:19.868Z,1123.00
2023-05-04T11:30:19.861Z,1381.00
2023-05-04T11:31:19.856Z,1486.00
2023-05-04T11:32:19.893Z,1340.00
2023-05-04T11:33:19.846Z,1580.00
2023-05-04T11:34:19.853Z,1622.00
2023-05-04T11:35:19.845Z,1722.00
2023-05-04T11:36:19.829Z,1699.00
2023-05-04T11:37:19.814Z,1634.00
2023-05-04T11:38:19.857Z,1750.00
2023-05-04T11:39:19.832Z,1824.00
2023-05-04T11:40:19.815Z,1835.00
2023-05-04T11:41:19.821Z,1838.00
2023-05-04T11:42:19.816Z,1863.00
2023-05-04T11:43:19.828Z,1815.00
2023-05-04T11:44:19.788Z,1868.00
2023-05-04T11:45:19.770Z,1892.00
2023-05-04T11:46:19.904Z,1921.00
2023-05-04T11:47:19.776Z,1983.00
2023-05-04T11:48:19.743Z,2054.00
2023-05-04T11:49:19.748Z,2093.00
2023-05-04T11:50:19.816Z,2092.00
2023-05-04T11:51:19.745Z,2178.00
2023-05-04T11:52:19.714Z,2142.00
2023-05-04T11:53:19.741Z,2219.00
2023-05-04T11:54:19.709Z,2216.00
2023-05-04T11:55:19.749Z,2269.00
2023-05-04T11:56:19.711Z,2220.00
2023-05-04T11:57:19.688Z,2253.00
2023-05-04T11:58:19.690Z,2251.00
2023-05-04T11:59:19.677Z,2252.00
2023-05-04T12:00:19.723Z,2272.00
2023-05-04T12:01:19.657Z,2208.00
2023-05-04T12:02:19.754Z,2227.00
2023-05-04T12:03:19.775Z,2337.00
2023-05-04T12:04:19.696Z,2296.00
2023-05-04T12:05:19.717Z,2277.00
2023-05-04T12:06:19.651Z,2301.00